Time;durP1;ratioP1;P1;durP2;ratioP2;P2;SDS_P1;SDS_P2;PMS_P1;PMS_P2;Temp;Humidity;BMP_temperature;BMP_pressure;BME280_temperature;BME280_humidity;BME280_pressure;Samples;Min_cycle;Max_cycle;Signal;HPM_P1;HPM_P2
2021/12/08 00:00:28;;;;;;;8.35;3.03;;;2.30;99.90;;;;;;5048015;28;20049;-68
2021/12/08 00:02:54;;;;;;;14.02;3.33;;;2.30;99.90;;;;;;5049458;28;20416;-68
2021/12/08 00:05:21;;;;;;;6.32;3.00;;;2.30;99.90;;;;;;5044460;28;20060;-68
2021/12/08 00:07:47;;;;;;;7.00;3.10;;;2.50;99.90;;;;;;5040253;28;20037;-68
2021/12/08 00:10:27;;;;;;;7.60;2.65;;;2.30;99.90;;;;;;5028536;28;20284;-68
2021/12/08 00:13:03;;;;;;;4.53;2.38;;;2.30;99.90;;;;;;5028865;28;20761;-68
2021/12/08 00:15:38;;;;;;;5.30;2.30;;;2.30;99.90;;;;;;5028144;28;20060;-68
2021/12/08 00:18:06;;;;;;;3.38;2.60;;;2.30;99.90;;;;;;5028958;28;20052;-68
2021/12/08 00:20:33;;;;;;;7.75;3.95;;;2.30;99.90;;;;;;5029468;28;20080;-68
2021/12/08 00:23:00;;;;;;;4.30;2.10;;;2.40;99.90;;;;;;5030238;28;20049;-68
2021/12/08 00:25:26;;;;;;;8.50;3.67;;;2.40;99.90;;;;;;5028826;28;20049;-68
2021/12/08 00:27:52;;;;;;;4.47;2.92;;;2.50;99.90;;;;;;5027879;28;20577;-68
2021/12/08 00:30:17;;;;;;;9.02;3.58;;;2.40;99.90;;;;;;5029713;28;20042;-68
2021/12/08 00:32:45;;;;;;;9.90;3.03;;;2.50;99.90;;;;;;5034085;28;20090;-68
2021/12/08 00:35:11;;;;;;;5.10;2.65;;;2.40;99.90;;;;;;5032019;28;20075;-68
2021/12/08 00:37:37;;;;;;;7.53;3.33;;;2.40;99.90;;;;;;5034036;28;20049;-68
2021/12/08 00:40:06;;;;;;;10.30;3.63;;;2.50;99.90;;;;;;5032838;28;20172;-68
2021/12/08 00:42:31;;;;;;;9.00;4.15;;;2.50;99.90;;;;;;5031931;28;20518;-68
2021/12/08 00:44:59;;;;;;;5.00;3.22;;;2.70;99.90;;;;;;5032811;28;20135;-68
2021/12/08 00:47:25;;;;;;;6.90;3.22;;;2.50;99.90;;;;;;5034093;28;20104;-68
2021/12/08 00:49:51;;;;;;;5.25;3.20;;;2.60;99.90;;;;;;5031760;28;20587;-67
2021/12/08 00:52:16;;;;;;;6.38;3.85;;;2.60;99.90;;;;;;5032348;28;20055;-67
2021/12/08 00:54:42;;;;;;;7.45;3.38;;;2.60;99.90;;;;;;5033867;28;20415;-68
2021/12/08 00:57:08;;;;;;;9.00;3.67;;;2.60;99.90;;;;;;5031818;28;20050;-68
2021/12/08 00:59:34;;;;;;;8.30;3.55;;;2.70;99.90;;;;;;5033758;28;20061;-68
2021/12/08 01:02:02;;;;;;;6.13;3.50;;;2.60;99.90;;;;;;5031910;28;20046;-68
2021/12/08 01:04:33;;;;;;;7.20;3.97;;;2.70;99.90;;;;;;5033737;28;20037;-69
2021/12/08 01:07:00;;;;;;;8.63;3.65;;;2.70;99.90;;;;;;5033723;28;20073;-68
2021/12/08 01:09:26;;;;;;;6.78;3.13;;;2.70;99.90;;;;;;5032925;28;20072;-68
2021/12/08 01:11:52;;;;;;;8.32;4.20;;;2.80;99.90;;;;;;5033511;28;20045;-68
2021/12/08 01:14:18;;;;;;;6.53;3.60;;;2.80;99.90;;;;;;5033549;28;20056;-68
2021/12/08 01:16:44;;;;;;;7.28;3.97;;;2.80;99.90;;;;;;5033831;28;20550;-67
2021/12/08 01:19:10;;;;;;;9.98;4.28;;;2.90;99.90;;;;;;5063129;28;20498;-68
2021/12/08 01:21:35;;;;;;;14.43;3.88;;;2.90;99.90;;;;;;5054783;28;20051;-68
2021/12/08 01:24:01;;;;;;;5.63;3.20;;;2.90;99.90;;;;;;5052964;28;20056;-68
2021/12/08 01:26:27;;;;;;;5.65;3.72;;;2.90;99.90;;;;;;5053520;28;20064;-68
2021/12/08 01:28:56;;;;;;;8.27;3.42;;;2.90;99.90;;;;;;5053122;28;20052;-68
2021/12/08 01:31:22;;;;;;;7.72;3.72;;;2.90;99.90;;;;;;5052597;28;20053;-68
2021/12/08 01:33:50;;;;;;;8.02;3.97;;;3.00;99.90;;;;;;5051782;28;20636;-67
2021/12/08 01:36:15;;;;;;;5.43;2.72;;;3.20;99.90;;;;;;5053057;28;20131;-68
2021/12/08 01:38:41;;;;;;;5.43;3.05;;;3.00;99.90;;;;;;5050692;28;20048;-68
2021/12/08 01:41:07;;;;;;;10.43;3.67;;;2.90;99.90;;;;;;5051823;28;20453;-68
2021/12/08 01:45:56;;;;;;;6.78;3.78;;;3.00;99.90;;;;;;5050602;28;20049;-68
2021/12/08 01:46:29;;;;;;;6.70;4.85;;;3.00;99.90;;;;;;5051769;28;20060;-68
2021/12/08 01:48:55;;;;;;;5.55;3.05;;;3.00;99.90;;;;;;5051872;28;20445;-68
2021/12/08 01:51:22;;;;;;;6.85;3.88;;;3.00;99.90;;;;;;5052104;28;20140;-68
2021/12/08 01:53:51;;;;;;;4.35;3.08;;;3.00;99.90;;;;;;5052281;28;20422;-68
2021/12/08 01:56:18;;;;;;;6.28;3.63;;;3.00;99.90;;;;;;5052827;28;20124;-68
2021/12/08 01:58:44;;;;;;;7.90;3.75;;;3.00;99.90;;;;;;5051651;28;20120;-68
2021/12/08 02:01:13;;;;;;;5.85;3.60;;;3.10;99.90;;;;;;5051360;28;20099;-68
2021/12/08 02:03:40;;;;;;;9.15;3.88;;;3.20;99.90;;;;;;5052332;28;20052;-68
2021/12/08 02:06:08;;;;;;;4.50;3.83;;;3.10;99.90;;;;;;5052065;28;20052;-68
2021/12/08 02:08:35;;;;;;;9.18;4.18;;;3.20;99.90;;;;;;5052366;28;20041;-68
2021/12/08 02:11:02;;;;;;;5.57;3.88;;;3.10;99.90;;;;;;5052520;28;20427;-68
2021/12/08 02:13:35;;;;;;;5.07;4.47;;;3.20;99.90;;;;;;5051655;28;20119;-68
2021/12/08 02:16:00;;;;;;;;;;;3.20;99.90;;;;;;5052789;28;20084;-67
2021/12/08 02:18:27;;;;;;;6.25;4.40;;;3.30;99.90;;;;;;5051017;28;19921;-67
2021/12/08 02:20:52;;;;;;;9.98;4.47;;;3.10;99.90;;;;;;5051286;28;20136;-68
2021/12/08 02:23:19;;;;;;;8.43;5.00;;;3.20;99.90;;;;;;5052342;28;20064;-68
2021/12/08 02:25:46;;;;;;;10.10;4.35;;;3.10;99.90;;;;;;5051961;28;20068;-68
2021/12/08 02:28:12;;;;;;;10.35;4.13;;;3.10;99.90;;;;;;5051341;28;20056;-68
2021/12/08 02:30:47;;;;;;;5.82;4.28;;;3.20;99.90;;;;;;5051972;28;20036;-68
2021/12/08 02:47:13;;;;;;;7.30;4.13;;;3.20;99.90;;;;;;5051883;28;20491;-68
2021/12/08 02:49:39;;;;;;;8.00;4.78;;;3.30;99.90;;;;;;5050896;28;20052;-68
2021/12/08 02:52:09;;;;;;;11.80;3.80;;;3.30;99.90;;;;;;5051647;28;20051;-68
2021/12/08 02:54:41;;;;;;;6.60;3.55;;;3.30;99.90;;;;;;5049102;28;20092;-68
2021/12/08 02:57:08;;;;;;;8.48;4.32;;;3.40;99.90;;;;;;5050344;28;20045;-67
2021/12/08 02:59:35;;;;;;;6.57;4.90;;;3.40;99.90;;;;;;5049846;28;20106;-68
2021/12/08 03:02:02;;;;;;;6.38;4.30;;;3.30;99.90;;;;;;5050699;28;20045;-68
2021/12/08 03:04:27;;;;;;;8.77;3.78;;;3.30;99.90;;;;;;5051605;28;20090;-68
2021/12/08 03:06:53;;;;;;;5.97;3.65;;;3.40;99.90;;;;;;5049977;28;20061;-68
2021/12/08 03:09:19;;;;;;;7.05;4.57;;;3.40;99.90;;;;;;5050860;28;20048;-68
2021/12/08 03:11:48;;;;;;;7.32;4.75;;;3.40;99.90;;;;;;5060762;28;20059;-68
2021/12/08 03:14:15;;;;;;;7.78;5.40;;;3.40;99.90;;;;;;5063390;28;20041;-68
2021/12/08 03:16:45;;;;;;;7.60;4.95;;;3.30;99.90;;;;;;5050374;28;20052;-68
2021/12/08 03:19:11;;;;;;;7.80;4.60;;;3.40;99.90;;;;;;5052322;28;20075;-68
2021/12/08 03:21:37;;;;;;;6.63;4.35;;;3.30;99.90;;;;;;5069447;28;20037;-68
2021/12/08 03:26:50;;;;;;;9.32;4.63;;;3.30;99.90;;;;;;5069415;28;20126;-68
2021/12/08 03:32:09;;;;;;;6.50;4.28;;;3.40;99.90;;;;;;5069051;28;20049;-68
2021/12/08 03:34:40;;;;;;;6.10;4.88;;;3.40;99.90;;;;;;5070697;28;20102;-68
2021/12/08 03:37:07;;;;;;;6.30;5.65;;;3.40;99.90;;;;;;5069090;28;20059;-67
2021/12/08 03:39:34;;;;;;;8.98;5.50;;;3.50;99.90;;;;;;5069095;28;20052;-68
2021/12/08 03:42:02;;;;;;;10.48;6.25;;;3.50;99.90;;;;;;5070848;28;20053;-67
2021/12/08 03:44:28;;;;;;;9.05;6.10;;;3.50;99.90;;;;;;5068950;28;20052;-67
2021/12/08 03:46:59;;;;;;;7.28;5.95;;;3.50;99.90;;;;;;5069494;28;20384;-68
2021/12/08 03:49:25;;;;;;;8.43;7.40;;;3.50;99.90;;;;;;5070540;28;20082;-68
2021/12/08 03:51:50;;;;;;;9.10;7.03;;;3.60;99.90;;;;;;5068560;28;20049;-68
2021/12/08 03:54:16;;;;;;;13.00;8.65;;;3.60;99.90;;;;;;5069146;28;20451;-68
2021/12/08 03:56:42;;;;;;;9.00;6.38;;;3.60;99.90;;;;;;5070428;28;20046;-68
2021/12/08 03:59:08;;;;;;;10.52;7.15;;;3.60;99.90;;;;;;5069843;28;20486;-68
2021/12/08 04:01:34;;;;;;;6.50;5.75;;;3.60;99.90;;;;;;5070056;28;20040;-68
2021/12/08 04:04:02;;;;;;;7.07;6.18;;;3.70;99.90;;;;;;5070324;28;20044;-67
2021/12/08 04:06:39;;;;;;;10.13;7.78;;;3.70;99.90;;;;;;5067781;28;20090;-68
2021/12/08 04:09:13;;;;;;;7.57;6.15;;;3.70;99.90;;;;;;5069230;28;20056;-68
2021/12/08 04:11:38;;;;;;;10.15;7.30;;;3.70;99.90;;;;;;5070093;28;20068;-67
2021/12/08 04:14:10;;;;;;;13.15;7.10;;;3.80;99.90;;;;;;5068436;28;20095;-68
2021/12/08 04:16:41;;;;;;;11.65;7.55;;;3.80;99.90;;;;;;5069907;28;20131;-68
2021/12/08 04:19:08;;;;;;;9.15;8.10;;;3.70;99.90;;;;;;5068540;28;20784;-68
2021/12/08 04:21:34;;;;;;;8.38;6.88;;;3.80;99.90;;;;;;5068854;28;20053;-68
2021/12/08 04:24:00;;;;;;;11.90;7.53;;;3.90;99.90;;;;;;5055888;28;20033;-67
2021/12/08 04:26:35;;;;;;;14.15;8.63;;;3.90;99.90;;;;;;5050717;28;20055;-68
2021/12/08 04:29:04;;;;;;;12.55;8.85;;;3.90;99.90;;;;;;5057721;28;20053;-68
2021/12/08 04:31:33;;;;;;;12.55;8.13;;;3.90;99.90;;;;;;5049708;28;20560;-68
2021/12/08 04:34:03;;;;;;;13.18;8.80;;;3.90;99.90;;;;;;5053012;28;20048;-67
2021/12/08 04:36:42;;;;;;;12.82;8.60;;;3.90;99.90;;;;;;5068856;28;20203;-68
2021/12/08 04:39:18;;;;;;;12.30;8.77;;;4.00;99.90;;;;;;5070295;28;20079;-68
2021/12/08 04:41:50;;;;;;;11.73;8.63;;;3.90;99.90;;;;;;5069021;28;20830;-68
2021/12/08 04:44:29;;;;;;;9.55;8.55;;;4.00;99.90;;;;;;5068734;28;20102;-67
2021/12/08 04:50:30;;;;;;;8.32;7.38;;;3.90;99.90;;;;;;5069555;28;20056;-67
2021/12/08 04:53:02;;;;;;;14.05;9.15;;;4.00;99.90;;;;;;5069379;28;20072;-68
2021/12/08 05:06:44;;;;;;;10.43;8.68;;;4.00;99.90;;;;;;5069582;28;20063;-68
2021/12/08 05:09:33;;;;;;;14.13;8.77;;;4.00;99.90;;;;;;5069169;28;20044;-68
2021/12/08 05:12:04;;;;;;;13.35;9.05;;;4.10;99.90;;;;;;5069834;28;20127;-67
2021/12/08 05:14:35;;;;;;;12.73;8.48;;;4.10;99.90;;;;;;5069449;28;20459;-68
2021/12/08 05:17:08;;;;;;;10.55;8.68;;;4.10;99.90;;;;;;5069597;28;20044;-68
2021/12/08 05:19:34;;;;;;;10.90;9.35;;;4.10;99.90;;;;;;5073289;28;20429;-68
2021/12/08 05:22:15;;;;;;;12.10;8.57;;;4.20;99.90;;;;;;5072258;28;20049;-68
2021/12/08 05:24:44;;;;;;;10.55;8.18;;;4.20;99.90;;;;;;5071665;28;20134;-68
2021/12/08 05:27:18;;;;;;;11.07;8.30;;;4.20;99.90;;;;;;5071932;28;20049;-68
2021/12/08 05:30:12;;;;;;;11.07;7.95;;;4.30;99.90;;;;;;5072457;28;20109;-68
2021/12/08 05:32:39;;;;;;;14.10;8.80;;;4.20;99.90;;;;;;5071494;28;20049;-68
2021/12/08 05:35:08;;;;;;;9.23;7.30;;;4.30;99.90;;;;;;5071217;28;20064;-68
2021/12/08 05:37:34;;;;;;;10.80;8.15;;;4.40;99.90;;;;;;5057913;28;20060;-67
2021/12/08 05:39:59;;;;;;;10.30;7.30;;;4.40;99.90;;;;;;5070269;28;20056;-68
2021/12/08 05:42:30;;;;;;;11.13;7.85;;;4.50;99.90;;;;;;5053337;28;20395;-68
2021/12/08 05:44:57;;;;;;;10.90;8.13;;;4.50;99.90;;;;;;5051209;28;20785;-68
2021/12/08 05:47:28;;;;;;;8.07;6.60;;;4.50;99.90;;;;;;5069516;28;20087;-68
2021/12/08 05:49:55;;;;;;;11.82;7.10;;;4.50;99.90;;;;;;5071681;28;20063;-68
2021/12/08 05:52:21;;;;;;;8.98;7.18;;;4.60;99.90;;;;;;5064827;28;20033;-68
2021/12/08 05:54:49;;;;;;;11.63;8.50;;;4.60;99.90;;;;;;5055818;28;20525;-67
2021/12/08 05:57:25;;;;;;;7.68;6.82;;;4.70;99.90;;;;;;5065134;28;20048;-67
2021/12/08 05:59:52;;;;;;;15.18;9.52;;;4.70;99.90;;;;;;5072456;28;20055;-68
2021/12/08 06:02:22;;;;;;;8.80;6.80;;;4.70;99.90;;;;;;5057994;28;20048;-68
2021/12/08 06:04:48;;;;;;;8.93;6.97;;;4.70;99.90;;;;;;5051650;28;20059;-67
2021/12/08 06:07:14;;;;;;;11.80;6.05;;;4.80;99.90;;;;;;5051531;28;20048;-68
2021/12/08 06:09:40;;;;;;;7.60;6.45;;;4.80;99.90;;;;;;5052505;28;20048;-67
2021/12/08 06:12:10;;;;;;;7.78;5.93;;;4.80;99.90;;;;;;5059110;28;20049;-67
2021/12/08 06:14:36;;;;;;;9.40;7.18;;;4.80;99.90;;;;;;5051105;28;20187;-67
2021/12/08 06:17:09;;;;;;;10.85;5.80;;;4.80;99.90;;;;;;5061550;28;20052;-67
2021/12/08 06:19:36;;;;;;;7.40;5.95;;;4.80;99.90;;;;;;5070138;28;20441;-68
2021/12/08 06:22:06;;;;;;;11.50;6.45;;;4.90;99.90;;;;;;5072341;28;20045;-68
2021/12/08 06:24:32;;;;;;;13.40;6.82;;;4.80;99.90;;;;;;5052158;28;20084;-68
2021/12/08 06:26:57;;;;;;;9.02;6.32;;;4.80;99.90;;;;;;5050506;28;20585;-68
2021/12/08 06:29:23;;;;;;;9.15;6.65;;;4.90;99.90;;;;;;5050188;28;20053;-67
2021/12/08 06:31:53;;;;;;;8.82;5.25;;;4.90;99.90;;;;;;5051798;28;20106;-67
2021/12/08 06:34:20;;;;;;;11.02;6.70;;;4.90;99.90;;;;;;5051409;28;20049;-67
2021/12/08 06:36:54;;;;;;;9.57;7.03;;;4.90;99.90;;;;;;5050279;28;20048;-68
2021/12/08 06:39:26;;;;;;;28.02;7.55;;;4.80;99.90;;;;;;5050889;28;20063;-67
2021/12/08 06:41:57;;;;;;;13.95;6.93;;;4.80;99.90;;;;;;5048481;28;20057;-68
2021/12/08 06:44:27;;;;;;;10.60;8.05;;;4.80;99.90;;;;;;5051637;28;20056;-68
2021/12/08 06:46:56;;;;;;;8.68;5.80;;;4.80;99.90;;;;;;5049594;28;20033;-68
2021/12/08 06:49:21;;;;;;;7.75;5.22;;;4.60;99.90;;;;;;5056620;28;20168;-67
2021/12/08 06:51:59;;;;;;;12.27;5.75;;;4.60;99.90;;;;;;5064682;28;20045;-67
2021/12/08 06:54:34;;;;;;;8.68;5.68;;;4.60;99.90;;;;;;5029590;28;20507;-68
2021/12/08 06:57:10;;;;;;;11.15;5.63;;;4.50;99.90;;;;;;5069811;28;20045;-68
2021/12/08 06:59:50;;;;;;;8.70;6.13;;;4.50;99.90;;;;;;5066666;28;20052;-68
2021/12/08 07:02:32;;;;;;;10.68;5.32;;;4.40;99.90;;;;;;5050791;28;20080;-68
2021/12/08 07:06:03;;;;;;;12.90;6.50;;;4.40;99.90;;;;;;5037709;28;20488;-67
2021/12/08 07:07:44;;;;;;;21.92;7.25;;;4.50;99.90;;;;;;5042767;28;20045;-67
2021/12/08 07:10:21;;;;;;;11.43;6.10;;;4.50;99.90;;;;;;5069203;28;20052;-67
2021/12/08 07:12:52;;;;;;;10.85;5.78;;;4.40;99.90;;;;;;5071120;28;20170;-67
2021/12/08 07:15:25;;;;;;;8.25;5.20;;;4.40;99.90;;;;;;5061359;28;20413;-67
2021/12/08 07:17:55;;;;;;;10.65;5.43;;;4.40;99.90;;;;;;5062386;28;20709;-67
2021/12/08 07:20:41;;;;;;;10.88;5.72;;;4.30;99.90;;;;;;5059818;28;20055;-67
2021/12/08 07:23:15;;;;;;;5.57;3.95;;;4.30;99.90;;;;;;5049383;28;20132;-67
2021/12/08 07:25:40;;;;;;;6.63;5.28;;;4.30;99.90;;;;;;5053733;28;20061;-68
2021/12/08 07:28:08;;;;;;;6.53;4.93;;;4.30;99.90;;;;;;5049377;28;20064;-68
2021/12/08 07:31:01;;;;;;;9.60;5.70;;;4.30;99.90;;;;;;5067727;28;20045;-68
2021/12/08 07:33:27;;;;;;;10.75;5.25;;;4.30;99.90;;;;;;5070982;28;20125;-68
2021/12/08 07:35:58;;;;;;;7.97;4.88;;;4.30;99.90;;;;;;5068652;28;20052;-68
2021/12/08 07:38:28;;;;;;;9.30;5.28;;;4.20;99.90;;;;;;5070906;28;20049;-68
2021/12/08 07:41:13;;;;;;;9.63;5.38;;;4.10;99.90;;;;;;5057612;28;20063;-68
2021/12/08 07:43:44;;;;;;;10.15;6.03;;;4.20;99.90;;;;;;5053528;28;20068;-68
2021/12/08 07:46:22;;;;;;;10.82;6.60;;;4.20;99.90;;;;;;5053774;28;20127;-68
2021/12/08 07:49:05;;;;;;;10.40;5.68;;;4.30;99.90;;;;;;5064968;28;21228;-68
2021/12/08 07:51:37;;;;;;;10.55;6.22;;;4.30;99.90;;;;;;5029962;28;20118;-69
2021/12/08 07:54:10;;;;;;;8.73;5.10;;;4.30;99.90;;;;;;5045257;28;20048;-68
2021/12/08 07:56:37;;;;;;;7.32;3.97;;;4.30;99.90;;;;;;5063258;28;20123;-68
2021/12/08 07:59:08;;;;;;;7.65;3.75;;;4.20;99.90;;;;;;5056138;28;20053;-68
2021/12/08 08:01:38;;;;;;;12.00;4.72;;;4.20;99.90;;;;;;5052613;28;20049;-68
2021/12/08 08:04:06;;;;;;;6.75;3.60;;;4.20;99.90;;;;;;5050478;28;20090;-68
2021/12/08 08:06:36;;;;;;;5.65;3.50;;;4.20;99.90;;;;;;5048629;28;20106;-69
2021/12/08 08:09:10;;;;;;;8.00;4.05;;;4.20;99.90;;;;;;5050398;28;20067;-69
2021/12/08 08:11:42;;;;;;;4.30;3.45;;;4.20;99.90;;;;;;5049370;28;20052;-68
2021/12/08 08:14:10;;;;;;;4.10;2.90;;;4.10;99.90;;;;;;5049575;28;20501;-69
2021/12/08 08:16:38;;;;;;;10.07;3.20;;;4.10;99.90;;;;;;5044482;28;20064;-69
2021/12/08 08:19:11;;;;;;;5.95;3.50;;;4.10;99.90;;;;;;5049612;28;20056;-68
2021/12/08 08:21:43;;;;;;;6.18;3.40;;;4.10;99.90;;;;;;5049987;28;20392;-68
2021/12/08 08:24:09;;;;;;;5.22;3.13;;;4.20;99.90;;;;;;5048853;28;20060;-68
2021/12/08 08:26:37;;;;;;;6.15;2.55;;;4.20;99.90;;;;;;5047911;28;20442;-68
2021/12/08 08:29:04;;;;;;;3.60;2.30;;;4.20;99.90;;;;;;5048724;28;20068;-69
2021/12/08 08:31:41;;;;;;;5.10;2.63;;;4.30;99.90;;;;;;5048427;28;20053;-69
2021/12/08 08:34:09;;;;;;;7.32;3.10;;;4.40;99.90;;;;;;5051277;28;20052;-69
2021/12/08 08:36:38;;;;;;;6.63;2.72;;;4.40;99.90;;;;;;5041408;28;20399;-69
2021/12/08 08:39:21;;;;;;;7.50;2.80;;;4.50;99.90;;;;;;5052379;28;20065;-69
2021/12/08 08:41:59;;;;;;;6.28;2.53;;;4.50;99.90;;;;;;5052077;28;20436;-69
2021/12/08 08:44:41;;;;;;;4.28;2.50;;;4.50;99.90;;;;;;5068636;28;20052;-69
2021/12/08 08:47:13;;;;;;;4.37;2.10;;;4.50;99.90;;;;;;5067957;28;20056;-69
2021/12/08 08:49:42;;;;;;;2.83;1.92;;;4.50;99.90;;;;;;5068355;28;20410;-68
2021/12/08 08:52:31;;;;;;;5.18;2.33;;;4.50;99.90;;;;;;5050835;28;20060;-68
2021/12/08 08:55:00;;;;;;;3.20;2.03;;;4.50;99.90;;;;;;5047405;28;20071;-68
2021/12/08 08:57:33;;;;;;;11.07;3.65;;;4.50;99.90;;;;;;5053559;28;20048;-68
2021/12/08 09:00:21;;;;;;;5.85;2.72;;;4.50;99.90;;;;;;5050583;28;20045;-69
2021/12/08 09:02:50;;;;;;;4.95;2.42;;;4.60;99.90;;;;;;5062893;28;20045;-69
2021/12/08 09:05:23;;;;;;;4.13;2.17;;;4.60;99.90;;;;;;5072618;28;20135;-67
2021/12/08 09:07:54;;;;;;;7.50;2.65;;;4.70;99.90;;;;;;5071265;28;20056;-69
2021/12/08 09:10:42;;;;;;;11.85;3.40;;;4.70;99.90;;;;;;5072248;28;20055;-69
2021/12/08 09:13:20;;;;;;;5.28;2.17;;;4.80;99.90;;;;;;5073606;28;20084;-72
2021/12/08 09:15:55;;;;;;;7.10;2.85;;;4.70;99.90;;;;;;5053982;28;20128;-69
2021/12/08 09:18:39;;;;;;;6.97;2.03;;;4.70;99.90;;;;;;5052203;28;20106;-69
2021/12/08 09:21:15;;;;;;;3.03;2.05;;;4.70;99.90;;;;;;5053687;28;20099;-69
2021/12/08 09:23:57;;;;;;;5.03;1.77;;;4.70;99.90;;;;;;5051478;28;20075;-69
2021/12/08 09:26:27;;;;;;;4.38;1.90;;;4.70;99.90;;;;;;5058800;28;20478;-69
2021/12/08 09:29:00;;;;;;;7.35;2.17;;;4.70;99.90;;;;;;5055727;28;20103;-68
2021/12/08 09:31:46;;;;;;;4.13;2.00;;;4.70;99.90;;;;;;5050719;28;20053;-69
2021/12/08 09:34:22;;;;;;;11.70;2.83;;;4.70;99.90;;;;;;5049076;28;20578;-69
2021/12/08 09:37:08;;;;;;;10.10;2.15;;;4.80;99.90;;;;;;5046588;28;20121;-69
2021/12/08 09:39:49;;;;;;;3.88;1.50;;;4.80;99.90;;;;;;5032294;28;20155;-69
2021/12/08 09:42:23;;;;;;;7.25;1.73;;;4.80;99.90;;;;;;5036946;28;20503;-69
2021/12/08 09:44:53;;;;;;;7.68;2.15;;;4.70;99.90;;;;;;5028730;28;20076;-69
2021/12/08 09:47:18;;;;;;;7.45;2.75;;;4.80;99.90;;;;;;5031942;28;20075;-68
2021/12/08 09:49:49;;;;;;;7.07;1.70;;;4.90;99.90;;;;;;5029259;28;20758;-68
2021/12/08 09:52:18;;;;;;;5.18;2.08;;;4.90;99.90;;;;;;5031660;28;20061;-68
2021/12/08 09:54:44;;;;;;;7.25;2.35;;;4.90;99.90;;;;;;5030802;28;20158;-68
2021/12/08 09:57:13;;;;;;;7.15;2.22;;;5.00;99.90;;;;;;5046641;28;20499;-68
2021/12/08 09:59:46;;;;;;;7.88;1.60;;;5.00;99.90;;;;;;5050019;28;20128;-68
2021/12/08 10:02:18;;;;;;;4.72;2.90;;;5.10;99.90;;;;;;5058369;28;20445;-68
2021/12/08 10:04:43;;;;;;;6.55;2.03;;;5.20;99.90;;;;;;5071276;28;20145;-68
2021/12/08 10:07:10;;;;;;;9.10;2.42;;;5.30;99.90;;;;;;5063572;28;20107;-69
2021/12/08 10:09:36;;;;;;;3.97;2.00;;;5.30;99.90;;;;;;5052248;28;20037;-69
2021/12/08 10:12:02;;;;;;;3.33;1.83;;;5.30;99.90;;;;;;5040527;28;20051;-67
2021/12/08 10:14:28;;;;;;;7.30;2.65;;;5.30;99.90;;;;;;5046417;28;20179;-67
2021/12/08 10:16:54;;;;;;;9.88;2.53;;;5.40;99.90;;;;;;5043073;28;20120;-68
2021/12/08 10:19:22;;;;;;;8.10;2.15;;;5.40;99.90;;;;;;5044363;28;20480;-68
2021/12/08 10:21:48;;;;;;;7.10;2.15;;;5.40;99.90;;;;;;5040740;28;20041;-68
2021/12/08 10:24:27;;;;;;;6.95;1.95;;;5.50;99.90;;;;;;5048530;28;20106;-68
2021/12/08 10:27:00;;;;;;;7.60;2.53;;;5.50;99.90;;;;;;5049271;28;20049;-69
2021/12/08 10:29:28;;;;;;;6.30;2.42;;;5.50;99.90;;;;;;5048172;28;20053;-68
2021/12/08 10:31:55;;;;;;;8.10;2.42;;;5.50;99.90;;;;;;5041563;28;20118;-68
2021/12/08 10:34:25;;;;;;;4.88;2.22;;;5.60;99.90;;;;;;5047427;28;20056;-69
2021/12/08 10:37:01;;;;;;;7.28;2.47;;;5.70;99.90;;;;;;5031999;28;20048;-68
2021/12/08 10:39:33;;;;;;;8.10;1.73;;;5.80;99.90;;;;;;5029125;28;20077;-71
2021/12/08 10:42:08;;;;;;;5.63;1.75;;;5.90;99.90;;;;;;5042499;28;20084;-70
2021/12/08 10:44:48;;;;;;;6.25;1.98;;;6.00;99.90;;;;;;5032801;28;20118;-70
2021/12/08 10:47:44;;;;;;;6.50;1.90;;;6.00;99.90;;;;;;5030344;28;20100;-70
2021/12/08 10:55:57;;;;;;;9.30;2.13;;;6.00;99.90;;;;;;5041099;28;19924;-69
2021/12/08 10:58:26;;;;;;;6.53;1.90;;;6.00;99.90;;;;;;5046163;28;20061;-69
2021/12/08 11:00:54;;;;;;;8.13;2.05;;;6.10;99.90;;;;;;5046212;28;20051;-69
2021/12/08 11:03:20;;;;;;;5.50;1.63;;;6.10;99.90;;;;;;5041129;28;20107;-68
2021/12/08 11:05:53;;;;;;;3.83;1.85;;;6.10;99.90;;;;;;5041472;28;20394;-69
2021/12/08 11:08:37;;;;;;;9.95;2.33;;;6.20;99.90;;;;;;5043842;28;20038;-69
2021/12/08 11:11:43;;;;;;;6.03;1.35;;;6.20;99.90;;;;;;5041131;28;20056;-69
2021/12/08 11:14:11;;;;;;;3.65;1.45;;;6.20;99.90;;;;;;5022333;28;20063;-69
2021/12/08 11:16:39;;;;;;;4.20;1.30;;;6.10;99.90;;;;;;5043378;28;20098;-69
2021/12/08 11:19:18;;;;;;;4.55;1.50;;;6.10;99.90;;;;;;5040983;28;20545;-68
2021/12/08 11:21:47;;;;;;;9.18;1.85;;;6.10;99.90;;;;;;5045332;28;20751;-68
2021/12/08 11:24:23;;;;;;;10.10;2.15;;;6.10;99.90;;;;;;5037780;28;20083;-68
2021/12/08 11:26:50;;;;;;;6.80;1.83;;;6.10;99.90;;;;;;5044442;28;20048;-68
2021/12/08 11:29:19;;;;;;;7.65;2.22;;;6.10;99.90;;;;;;5040819;28;20046;-68
2021/12/08 11:31:46;;;;;;;6.05;2.17;;;6.00;99.90;;;;;;5042727;28;20131;-68
2021/12/08 11:34:20;;;;;;;6.07;2.03;;;6.00;99.90;;;;;;5040360;28;20140;-68
2021/12/08 11:36:50;;;;;;;7.57;1.65;;;6.00;99.90;;;;;;5047598;28;20049;-68
2021/12/08 11:39:19;;;;;;;6.18;2.00;;;6.00;99.90;;;;;;5050354;28;20041;-68
2021/12/08 11:41:54;;;;;;;3.47;1.73;;;6.00;99.90;;;;;;5044158;28;20061;-68
2021/12/08 11:44:24;;;;;;;5.00;1.90;;;6.00;99.90;;;;;;5048265;28;20053;-68
2021/12/08 11:47:12;;;;;;;5.63;1.85;;;6.00;99.90;;;;;;5046851;28;20061;-68
2021/12/08 11:49:42;;;;;;;5.65;1.70;;;6.00;99.90;;;;;;5049187;28;20127;-67
2021/12/08 11:52:18;;;;;;;4.70;1.92;;;6.00;99.90;;;;;;5048793;28;20081;-67
2021/12/08 11:54:50;;;;;;;5.80;1.80;;;6.00;99.90;;;;;;5047991;28;20107;-68
2021/12/08 11:57:36;;;;;;;8.07;2.13;;;6.00;99.90;;;;;;5051003;28;20059;-66
2021/12/08 12:00:24;;;;;;;5.68;1.80;;;6.00;99.90;;;;;;5050411;28;20049;-68
2021/12/08 12:03:02;;;;;;;6.45;1.52;;;5.90;99.90;;;;;;5054318;28;20036;-68
2021/12/08 12:05:37;;;;;;;5.25;1.75;;;5.90;99.90;;;;;;5048098;28;20393;-68
2021/12/08 12:08:06;;;;;;;6.32;1.85;;;5.90;99.90;;;;;;5063543;28;20048;-68
2021/12/08 12:10:36;;;;;;;5.22;1.77;;;5.90;99.90;;;;;;5058241;28;20041;-68
2021/12/08 12:13:08;;;;;;;5.78;2.13;;;5.90;99.90;;;;;;5035874;28;20045;-67
2021/12/08 12:15:35;;;;;;;6.53;1.58;;;5.90;99.90;;;;;;5029130;28;20618;-69
2021/12/08 12:18:01;;;;;;;7.05;2.33;;;5.80;99.90;;;;;;5028628;28;20492;-68
2021/12/08 12:20:46;;;;;;;5.82;2.13;;;5.80;99.90;;;;;;5027846;28;20085;-69
2021/12/08 12:23:53;;;;;;;3.47;1.77;;;5.80;99.90;;;;;;5028264;28;20045;-68
2021/12/08 12:26:42;;;;;;;8.73;2.88;;;5.80;99.90;;;;;;4969509;28;20058;-68
2021/12/08 12:29:23;;;;;;;7.13;1.60;;;5.80;99.90;;;;;;4971078;28;20053;-68
2021/12/08 12:31:54;;;;;;;4.78;1.60;;;5.80;99.90;;;;;;5018267;28;20140;-69
2021/12/08 12:34:32;;;;;;;4.90;1.92;;;5.70;99.90;;;;;;5030058;28;20418;-68
2021/12/08 12:37:15;;;;;;;8.75;2.35;;;5.70;99.90;;;;;;5030339;28;20484;-68
2021/12/08 12:39:48;;;;;;;10.65;1.85;;;5.70;99.90;;;;;;5044897;28;20041;-68
2021/12/08 12:42:15;;;;;;;7.05;2.05;;;5.70;99.90;;;;;;5047051;28;20087;-66
2021/12/08 12:44:45;;;;;;;5.47;1.70;;;5.70;99.90;;;;;;5048538;28;20511;-68
2021/12/08 12:47:25;;;;;;;5.32;2.00;;;5.70;99.90;;;;;;5047528;28;20052;-69
2021/12/08 12:50:21;;;;;;;7.55;2.58;;;5.80;99.90;;;;;;5045606;28;20037;-70
2021/12/08 12:52:57;;;;;;;9.48;2.50;;;5.70;99.90;;;;;;5033939;28;20053;-70
2021/12/08 12:55:28;;;;;;;5.47;2.03;;;5.80;99.90;;;;;;5049675;28;20048;-70
2021/12/08 12:58:03;;;;;;;7.45;2.20;;;5.70;99.90;;;;;;5048690;28;20057;-69
2021/12/08 13:00:37;;;;;;;6.55;2.13;;;5.70;99.90;;;;;;5047858;28;20078;-70
2021/12/08 13:03:03;;;;;;;5.03;1.85;;;5.70;99.90;;;;;;5048795;28;20060;-70
2021/12/08 13:05:52;;;;;;;8.57;2.25;;;5.70;99.90;;;;;;5049561;28;20044;-71
2021/12/08 13:08:33;;;;;;;5.47;2.35;;;5.70;99.90;;;;;;5047637;28;20060;-70
2021/12/08 13:11:05;;;;;;;6.68;2.13;;;5.70;99.90;;;;;;5048639;28;20068;-70
2021/12/08 13:13:46;;;;;;;5.97;2.40;;;5.70;99.90;;;;;;5047343;28;20095;-70
2021/12/08 13:16:31;;;;;;;8.93;2.80;;;5.70;99.90;;;;;;5047232;28;20425;-70
2021/12/08 13:19:02;;;;;;;8.95;2.50;;;5.70;99.90;;;;;;5028548;28;20095;-70
2021/12/08 13:21:48;;;;;;;5.43;2.15;;;5.70;99.90;;;;;;5027868;28;20053;-69
2021/12/08 13:24:31;;;;;;;6.07;2.95;;;5.60;99.90;;;;;;5040162;28;20044;-70
2021/12/08 13:27:01;;;;;;;6.25;1.85;;;5.60;99.90;;;;;;5068097;28;20052;-70
2021/12/08 13:29:31;;;;;;;9.00;2.50;;;5.60;99.90;;;;;;5067732;28;20495;-70
2021/12/08 13:32:09;;;;;;;5.90;2.22;;;5.60;99.90;;;;;;5068415;28;20060;-69
2021/12/08 13:34:36;;;;;;;8.85;2.17;;;5.60;99.90;;;;;;5052793;28;20045;-69
2021/12/08 13:37:15;;;;;;;5.82;2.70;;;5.60;99.90;;;;;;5069335;28;20490;-70
2021/12/08 13:39:43;;;;;;;7.60;2.30;;;5.60;99.90;;;;;;5069509;28;20114;-69
2021/12/08 13:42:12;;;;;;;9.48;2.50;;;5.60;99.90;;;;;;5044576;28;20169;-70
2021/12/08 13:44:59;;;;;;;7.45;2.63;;;5.60;99.90;;;;;;5032273;28;20061;-70
2021/12/08 13:47:37;;;;;;;11.05;2.53;;;5.60;99.90;;;;;;5057654;28;20052;-70
2021/12/08 13:50:32;;;;;;;5.93;2.50;;;5.60;99.90;;;;;;5058843;28;20135;-69
2021/12/08 13:53:09;;;;;;;4.55;2.05;;;5.70;99.90;;;;;;5050895;28;20148;-70
2021/12/08 13:55:44;;;;;;;5.80;2.65;;;5.60;99.90;;;;;;5052216;28;20150;-70
2021/12/08 13:58:17;;;;;;;9.32;2.60;;;5.60;99.90;;;;;;5043099;28;20570;-70